createdAt,value
2022-09-22T00:01:43.417Z,5.73
2022-09-22T00:04:13.994Z,5.13
2022-09-22T00:06:47.289Z,4.90
2022-09-22T00:09:18.319Z,4.87
2022-09-22T00:11:49.314Z,4.57
2022-09-22T00:14:21.149Z,4.90
2022-09-22T00:16:52.664Z,5.00
2022-09-22T00:19:24.854Z,4.33
2022-09-22T00:21:56.068Z,4.67
2022-09-22T00:24:26.712Z,4.33
2022-09-22T00:26:57.713Z,4.23
2022-09-22T00:29:28.687Z,4.83
2022-09-22T00:32:00.268Z,4.60
2022-09-22T00:34:31.332Z,4.50
2022-09-22T00:37:02.002Z,4.67
2022-09-22T00:39:31.808Z,5.20
2022-09-22T00:42:00.870Z,4.87
2022-09-22T00:44:43.640Z,4.37
2022-09-22T00:47:38.100Z,4.63
2022-09-22T00:50:15.161Z,4.07
2022-09-22T00:52:49.610Z,4.20
2022-09-22T00:55:23.856Z,4.20
2022-09-22T00:57:54.843Z,3.97
2022-09-22T01:00:24.405Z,4.20
2022-09-22T01:02:57.614Z,3.87
2022-09-22T01:05:29.177Z,4.50
2022-09-22T01:07:59.717Z,4.40
2022-09-22T01:10:28.805Z,4.27
2022-09-22T01:13:05.959Z,4.27
2022-09-22T01:15:41.705Z,3.97
2022-09-22T01:18:22.269Z,4.23
2022-09-22T01:21:20.269Z,4.83
2022-09-22T01:24:20.442Z,4.20
2022-09-22T01:27:41.584Z,4.13
2022-09-22T01:30:22.242Z,4.30
2022-09-22T01:33:29.303Z,4.17
2022-09-22T01:36:11.277Z,4.00
2022-09-22T01:38:49.151Z,4.20
2022-09-22T01:41:24.120Z,4.67
2022-09-22T01:43:57.544Z,4.20
2022-09-22T01:46:32.117Z,3.67
2022-09-22T01:49:06.349Z,4.13
2022-09-22T01:51:41.435Z,4.60
2022-09-22T01:54:15.817Z,4.10
2022-09-22T01:56:49.381Z,4.10
2022-09-22T01:59:21.195Z,3.67
2022-09-22T02:01:57.236Z,3.83
2022-09-22T02:04:32.493Z,4.03
2022-09-22T02:07:05.737Z,3.63
2022-09-22T02:09:36.932Z,4.10
2022-09-22T02:12:06.577Z,3.77
2022-09-22T02:14:36.257Z,4.10
2022-09-22T02:17:06.707Z,3.87
2022-09-22T02:19:39.845Z,4.20
2022-09-22T02:22:11.110Z,4.30
2022-09-22T02:24:42.250Z,3.70
2022-09-22T02:27:16.129Z,4.03
2022-09-22T02:29:50.897Z,3.87
2022-09-22T02:32:22.757Z,3.90
2022-09-22T02:34:52.146Z,3.70
2022-09-22T02:37:29.034Z,3.60
2022-09-22T02:40:08.176Z,3.53
2022-09-22T02:42:43.360Z,3.53
2022-09-22T02:45:18.212Z,3.50
2022-09-22T02:47:53.105Z,4.00
2022-09-22T02:50:26.431Z,4.33
2022-09-22T02:52:59.300Z,4.97
2022-09-22T02:55:28.571Z,4.43
2022-09-22T02:57:57.520Z,4.13
2022-09-22T03:00:26.782Z,4.23
2022-09-22T03:02:57.313Z,4.93
2022-09-22T03:05:26.698Z,4.33
2022-09-22T03:07:55.630Z,3.90
2022-09-22T03:10:24.729Z,4.60
2022-09-22T03:13:14.889Z,3.90
2022-09-22T03:15:42.966Z,4.40
2022-09-22T03:18:13.470Z,3.93
2022-09-22T03:20:42.853Z,4.17
2022-09-22T03:23:11.896Z,4.20
2022-09-22T03:25:41.361Z,4.43
2022-09-22T03:28:10.413Z,3.40
2022-09-22T03:30:40.332Z,4.03
2022-09-22T03:33:09.565Z,3.40
2022-09-22T03:35:40.211Z,3.70
2022-09-22T03:38:09.392Z,3.70
2022-09-22T03:40:38.582Z,3.70
2022-09-22T03:43:07.547Z,3.67
2022-09-22T03:45:36.438Z,3.47
2022-09-22T03:48:05.643Z,4.17
2022-09-22T03:50:34.519Z,4.23
2022-09-22T03:53:04.770Z,3.40
2022-09-22T03:55:34.507Z,4.20
2022-09-22T03:58:03.780Z,3.80
2022-09-22T04:00:32.780Z,3.50
2022-09-22T04:03:01.722Z,4.47
2022-09-22T04:05:30.870Z,3.77
2022-09-22T04:08:00.098Z,4.43
2022-09-22T04:10:30.362Z,3.43
2022-09-22T04:12:59.357Z,3.40
2022-09-22T04:15:28.337Z,3.50
2022-09-22T04:17:57.381Z,3.40
2022-09-22T04:20:27.563Z,3.87
2022-09-22T04:22:56.607Z,3.77
2022-09-22T04:25:25.652Z,3.50
2022-09-22T04:27:55.934Z,3.73
2022-09-22T04:30:24.966Z,3.97
2022-09-22T04:32:54.076Z,3.90
2022-09-22T04:35:23.020Z,3.77
2022-09-22T04:37:53.137Z,3.57
2022-09-22T04:40:22.581Z,3.50
2022-09-22T04:42:51.936Z,3.70
2022-09-22T04:45:22.370Z,3.33
2022-09-22T04:47:52.766Z,3.33
2022-09-22T04:50:23.455Z,3.97
2022-09-22T04:52:54.752Z,3.53
2022-09-22T04:55:26.225Z,4.00
2022-09-22T04:57:58.185Z,3.43
2022-09-22T05:00:30.943Z,3.60
2022-09-22T05:03:02.243Z,3.40
2022-09-22T05:05:32.299Z,3.73
2022-09-22T05:08:02.462Z,3.27
2022-09-22T05:10:37.176Z,3.40
2022-09-22T05:13:08.417Z,3.40
2022-09-22T05:15:40.061Z,3.60
2022-09-22T05:18:10.700Z,3.63
2022-09-22T05:20:40.788Z,3.40
2022-09-22T05:23:11.809Z,4.17
2022-09-22T05:25:41.963Z,3.83
2022-09-22T05:28:12.615Z,3.93
2022-09-22T05:30:43.180Z,3.90
2022-09-22T05:33:12.087Z,3.93
2022-09-22T05:35:41.198Z,4.33
2022-09-22T05:38:10.393Z,3.67
2022-09-22T05:40:41.296Z,4.60
2022-09-22T05:43:10.506Z,4.00
2022-09-22T05:45:39.548Z,4.90
2022-09-22T05:48:09.986Z,4.20
2022-09-22T05:50:39.150Z,5.03
2022-09-22T05:53:10.693Z,5.50
2022-09-22T05:55:41.199Z,5.97
2022-09-22T05:58:12.747Z,5.73
2022-09-22T06:00:42.500Z,6.27
2022-09-22T06:03:12.899Z,6.20
2022-09-22T06:05:41.895Z,6.20
2022-09-22T06:08:10.849Z,6.80
2022-09-22T06:10:40.897Z,6.40
2022-09-22T06:13:11.759Z,6.77
2022-09-22T06:15:41.871Z,7.63
2022-09-22T06:18:15.324Z,7.53
2022-09-22T06:20:45.476Z,6.80
2022-09-22T06:23:15.371Z,6.60
2022-09-22T06:25:44.417Z,6.27
2022-09-22T06:28:15.591Z,6.33
2022-09-22T06:30:44.602Z,5.53
2022-09-22T06:33:14.920Z,5.27
2022-09-22T06:35:45.386Z,5.10
2022-09-22T06:38:15.852Z,4.10
2022-09-22T06:40:45.376Z,5.00
2022-09-22T06:43:22.832Z,3.83
2022-09-22T06:45:53.293Z,4.17
2022-09-22T06:48:24.305Z,5.20
2022-09-22T06:50:54.393Z,4.57
2022-09-22T06:53:26.736Z,5.37
2022-09-22T06:56:03.174Z,4.27
2022-09-22T06:58:47.021Z,4.47
2022-09-22T07:01:21.929Z,4.83
2022-09-22T07:03:52.601Z,4.70
2022-09-22T07:06:21.601Z,4.33
2022-09-22T07:08:50.843Z,5.13
2022-09-22T07:11:23.547Z,4.30
2022-09-22T07:13:54.060Z,5.63
2022-09-22T07:16:24.836Z,5.47
2022-09-22T07:18:58.289Z,5.13
2022-09-22T07:21:32.762Z,6.57
2022-09-22T07:24:01.777Z,6.50
2022-09-22T07:26:32.563Z,6.03
2022-09-22T07:29:03.220Z,6.33
2022-09-22T07:31:36.575Z,6.47
2022-09-22T07:34:07.125Z,6.53
2022-09-22T07:36:37.932Z,7.23
2022-09-22T07:39:08.512Z,7.17
2022-09-22T07:41:41.771Z,7.10
2022-09-22T07:44:44.740Z,7.23
2022-09-22T07:47:36.683Z,6.97
2022-09-22T07:50:07.777Z,7.80
2022-09-22T07:52:36.706Z,6.87
2022-09-22T07:55:06.284Z,6.90
2022-09-22T07:57:36.566Z,7.23
2022-09-22T08:00:06.238Z,6.70
2022-09-22T08:02:41.105Z,6.30
2022-09-22T08:05:11.729Z,5.83
2022-09-22T08:07:41.708Z,5.73
2022-09-22T08:10:12.214Z,6.57
2022-09-22T08:12:42.774Z,5.70
2022-09-22T08:15:13.044Z,5.37
2022-09-22T08:17:43.961Z,4.43
2022-09-22T08:20:14.292Z,3.70
2022-09-22T08:22:43.402Z,3.70
2022-09-22T08:25:13.106Z,3.33
2022-09-22T08:27:42.060Z,2.85
2022-09-22T08:30:11.947Z,2.80
2022-09-22T08:32:41.158Z,2.25
2022-09-22T08:35:11.258Z,2.22
2022-09-22T08:37:43.767Z,2.65
2022-09-22T08:40:23.682Z,2.03
2022-09-22T08:42:54.372Z,2.20
2022-09-22T08:45:32.358Z,2.42
2022-09-22T08:48:23.833Z,1.90
2022-09-22T08:51:14.251Z,1.92
2022-09-22T08:53:51.513Z,1.80
2022-09-22T08:56:30.706Z,1.88
2022-09-22T08:59:09.129Z,1.98
2022-09-22T09:01:53.794Z,1.85
2022-09-22T09:04:47.589Z,1.60
2022-09-22T09:07:27.415Z,1.55
2022-09-22T09:10:06.863Z,2.10
2022-09-22T09:12:49.396Z,1.80
2022-09-22T09:15:41.549Z,1.70
2022-09-22T09:18:17.414Z,1.50
2022-09-22T09:20:48.223Z,1.90
2022-09-22T09:23:19.647Z,1.67
2022-09-22T09:25:54.311Z,1.55
2022-09-22T09:28:31.655Z,1.80
2022-09-22T09:31:10.398Z,1.77
2022-09-22T09:33:48.214Z,1.63
2022-09-22T09:36:22.772Z,1.40
2022-09-22T09:38:55.784Z,1.25
2022-09-22T09:41:32.395Z,1.20
2022-09-22T09:44:03.515Z,1.15
2022-09-22T09:46:48.021Z,1.20
2022-09-22T09:49:20.090Z,1.10
2022-09-22T09:51:51.916Z,1.48
2022-09-22T09:54:21.721Z,1.05
2022-09-22T09:57:07.718Z,1.23
2022-09-22T09:59:56.055Z,1.35
2022-09-22T10:02:28.552Z,1.30
2022-09-22T10:04:59.874Z,1.30
2022-09-22T10:10:24.613Z,1.60
2022-09-22T10:12:56.860Z,1.73
2022-09-22T10:15:27.547Z,1.90
2022-09-22T10:17:56.484Z,1.85
2022-09-22T10:20:28.295Z,1.40
2022-09-22T10:22:57.952Z,1.60
2022-09-22T10:25:34.002Z,1.25
2022-09-22T10:28:06.882Z,1.33
2022-09-22T10:30:37.648Z,1.20
2022-09-22T10:33:22.201Z,1.30
2022-09-22T10:35:56.564Z,1.02
2022-09-22T10:38:28.973Z,1.10
2022-09-22T10:41:04.389Z,1.10
2022-09-22T10:43:42.488Z,0.80
2022-09-22T10:46:34.703Z,0.70
2022-09-22T10:49:12.153Z,0.80
2022-09-22T10:51:55.467Z,0.70
2022-09-22T10:54:51.439Z,0.82
2022-09-22T10:57:33.089Z,0.90
2022-09-22T11:00:12.484Z,0.90
2022-09-22T11:03:15.454Z,0.68
2022-09-22T11:06:21.746Z,0.80
2022-09-22T11:09:16.867Z,1.10
2022-09-22T11:12:09.116Z,1.00
2022-09-22T11:14:54.541Z,0.77
2022-09-22T11:17:38.563Z,0.77
2022-09-22T11:20:32.243Z,0.73
2022-09-22T11:23:34.682Z,0.60
2022-09-22T11:26:21.119Z,0.80
2022-09-22T11:29:12.795Z,0.60
2022-09-22T11:31:48.932Z,0.70
2022-09-22T11:34:47.080Z,0.50
2022-09-22T11:37:30.002Z,0.43
2022-09-22T11:40:27.170Z,0.50
2022-09-22T11:43:05.297Z,0.82
2022-09-22T11:45:48.104Z,1.02
2022-09-22T11:48:30.181Z,0.80
2022-09-22T11:51:27.275Z,0.43
2022-09-22T11:54:11.517Z,0.55
2022-09-22T11:56:44.542Z,0.30
2022-09-22T11:59:26.893Z,0.65
2022-09-22T12:01:58.969Z,0.63
2022-09-22T12:04:36.166Z,0.70
2022-09-22T12:07:10.325Z,0.80
2022-09-22T12:09:45.433Z,0.85
2022-09-22T12:12:20.216Z,0.55
2022-09-22T12:14:57.858Z,0.77
2022-09-22T12:17:36.705Z,0.60
2022-09-22T12:20:20.017Z,0.80
2022-09-22T12:23:12.436Z,0.75
2022-09-22T12:25:49.250Z,0.60
2022-09-22T12:28:25.660Z,0.75
2022-09-22T12:31:06.200Z,0.60
2022-09-22T12:33:38.067Z,0.57
2022-09-22T12:36:07.819Z,0.47
2022-09-22T12:38:38.839Z,0.55
2022-09-22T12:41:08.513Z,0.68
2022-09-22T12:43:38.315Z,0.43
2022-09-22T12:46:22.105Z,0.90
2022-09-22T12:48:51.568Z,0.80
2022-09-22T12:51:35.392Z,0.55
2022-09-22T12:54:47.176Z,0.88
2022-09-22T12:57:31.073Z,0.68
2022-09-22T13:00:32.214Z,0.57
2022-09-22T13:03:24.177Z,0.70
2022-09-22T13:05:56.444Z,0.77
2022-09-22T13:08:27.288Z,0.70
2022-09-22T13:10:59.348Z,0.80
2022-09-22T13:13:37.567Z,0.52
2022-09-22T13:16:37.857Z,0.98
2022-09-22T13:19:11.499Z,0.70
2022-09-22T13:21:41.978Z,0.55
2022-09-22T13:24:26.547Z,0.65
2022-09-22T13:27:05.632Z,0.57
2022-09-22T13:29:36.380Z,0.60
2022-09-22T13:32:26.517Z,0.80
2022-09-22T13:34:55.447Z,0.70
2022-09-22T13:37:26.218Z,0.70
2022-09-22T13:39:57.075Z,0.40
2022-09-22T13:42:31.242Z,0.52
2022-09-22T13:45:03.835Z,0.88
2022-09-22T13:47:33.724Z,0.50
2022-09-22T13:50:05.791Z,0.60
2022-09-22T13:52:39.318Z,0.50
2022-09-22T13:55:11.432Z,0.77
2022-09-22T13:57:41.372Z,0.60
2022-09-22T14:00:24.331Z,0.60
2022-09-22T14:02:53.768Z,0.60
2022-09-22T14:05:25.821Z,0.75
2022-09-22T14:08:12.078Z,0.82
2022-09-22T14:10:44.422Z,0.55
2022-09-22T14:13:38.823Z,0.60
2022-09-22T14:16:24.626Z,0.88
2022-09-22T14:18:59.452Z,0.75
2022-09-22T14:21:28.918Z,1.20
2022-09-22T14:24:00.069Z,0.63
2022-09-22T14:26:34.371Z,0.80
2022-09-22T14:29:18.527Z,0.63
2022-09-22T14:31:53.111Z,0.50
2022-09-22T14:34:25.648Z,0.55
2022-09-22T14:36:56.162Z,0.60
2022-09-22T14:39:33.936Z,0.63
2022-09-22T14:42:11.943Z,0.57
2022-09-22T14:44:46.134Z,0.73
2022-09-22T14:47:27.245Z,0.50
2022-09-22T14:50:10.553Z,0.60
2022-09-22T14:52:43.154Z,0.82
2022-09-22T14:55:20.339Z,0.40
2022-09-22T14:57:51.062Z,0.68
2022-09-22T15:00:40.497Z,0.50
2022-09-22T15:03:21.228Z,0.63
2022-09-22T15:05:51.324Z,0.68
2022-09-22T15:08:27.740Z,0.68
2022-09-22T15:11:00.239Z,0.80
2022-09-22T15:13:32.234Z,0.68
2022-09-22T15:16:01.233Z,0.60
2022-09-22T15:18:31.227Z,0.77
2022-09-22T15:21:06.135Z,0.40
2022-09-22T15:23:40.922Z,0.50
2022-09-22T15:26:20.683Z,0.60
2022-09-22T15:28:53.880Z,0.50
2022-09-22T15:31:26.635Z,0.60
2022-09-22T15:33:57.022Z,0.50
2022-09-22T15:36:26.439Z,0.50
2022-09-22T15:39:00.419Z,0.75
2022-09-22T15:41:31.683Z,0.50
2022-09-22T15:44:00.779Z,0.50
2022-09-22T15:46:35.146Z,0.77
2022-09-22T15:49:08.945Z,0.60
2022-09-22T15:51:37.900Z,0.57
2022-09-22T15:54:13.822Z,0.50
2022-09-22T15:56:45.069Z,0.70
2022-09-22T15:59:18.253Z,0.50
2022-09-22T16:01:47.451Z,0.60
2022-09-22T16:04:17.232Z,0.77
2022-09-22T16:06:51.104Z,0.82
2022-09-22T16:09:20.210Z,0.80
2022-09-22T16:11:50.556Z,0.70
2022-09-22T16:14:19.769Z,0.70
2022-09-22T16:16:49.082Z,0.70
2022-09-22T16:19:18.061Z,0.80
2022-09-22T16:21:51.253Z,0.60
2022-09-22T16:24:22.220Z,0.82
2022-09-22T16:26:53.513Z,0.90
2022-09-22T16:29:22.451Z,0.60
2022-09-22T16:31:51.546Z,0.90
2022-09-22T16:34:21.173Z,1.10
2022-09-22T16:36:50.070Z,0.98
2022-09-22T16:39:19.035Z,0.73
2022-09-22T16:41:48.361Z,0.93
2022-09-22T16:44:18.630Z,1.27
2022-09-22T16:46:47.577Z,1.00
2022-09-22T16:49:19.917Z,1.13
2022-09-22T16:51:50.555Z,1.10
2022-09-22T16:54:20.196Z,0.80
2022-09-22T16:56:50.860Z,0.73
2022-09-22T16:59:22.513Z,0.97
2022-09-22T17:01:51.870Z,0.73
2022-09-22T17:04:21.568Z,0.83
2022-09-22T17:06:50.884Z,0.90
2022-09-22T17:09:20.156Z,1.17
2022-09-22T17:11:50.000Z,1.00
2022-09-22T17:14:22.980Z,1.20
2022-09-22T17:16:53.464Z,0.80
2022-09-22T17:19:23.864Z,1.13
2022-09-22T17:21:55.125Z,0.83
2022-09-22T17:24:25.178Z,0.80
2022-09-22T17:26:55.800Z,0.83
2022-09-22T17:29:28.278Z,0.80
2022-09-22T17:31:59.933Z,2.37
2022-09-22T17:34:31.449Z,2.93
2022-09-22T17:37:01.221Z,1.10
2022-09-22T17:39:31.693Z,1.30
2022-09-22T17:42:00.783Z,1.37
2022-09-22T17:44:33.442Z,1.50
2022-09-22T17:47:20.245Z,1.00
2022-09-22T17:50:06.782Z,1.20
2022-09-22T17:52:53.219Z,1.30
2022-09-22T17:55:25.306Z,1.80
2022-09-22T17:57:56.306Z,1.70
2022-09-22T18:00:27.521Z,1.50
2022-09-22T18:02:56.641Z,1.53
2022-09-22T18:05:32.124Z,1.50
2022-09-22T18:08:01.201Z,1.50
2022-09-22T18:10:33.251Z,1.17
2022-09-22T18:13:04.278Z,1.77
2022-09-22T18:15:39.602Z,1.60
2022-09-22T18:18:08.610Z,1.43
2022-09-22T18:20:37.573Z,1.90
2022-09-22T18:23:07.135Z,1.60
2022-09-22T18:25:36.359Z,1.50
2022-09-22T18:28:05.586Z,1.80
2022-09-22T18:30:37.422Z,1.90
2022-09-22T18:33:06.334Z,1.80
2022-09-22T18:35:35.317Z,2.00
2022-09-22T18:38:04.403Z,1.70
2022-09-22T18:40:33.510Z,1.73
2022-09-22T18:43:02.675Z,1.50
2022-09-22T18:45:32.109Z,2.93
2022-09-22T18:48:02.809Z,2.70
2022-09-22T18:50:34.518Z,1.90
2022-09-22T18:53:03.546Z,1.80
2022-09-22T18:55:32.566Z,2.20
2022-09-22T18:58:02.110Z,2.60
2022-09-22T19:00:31.524Z,2.23
2022-09-22T19:03:01.938Z,1.80
2022-09-22T19:05:30.931Z,2.20
2022-09-22T19:08:00.875Z,1.90
2022-09-22T19:10:29.800Z,1.90
2022-09-22T19:12:59.327Z,2.00
2022-09-22T19:15:28.405Z,2.23
2022-09-22T19:17:57.394Z,2.07
2022-09-22T19:20:28.375Z,2.20
2022-09-22T19:22:57.352Z,2.07
2022-09-22T19:25:26.647Z,2.30
2022-09-22T19:27:55.960Z,2.30
2022-09-22T19:30:28.614Z,2.80
2022-09-22T19:33:00.639Z,2.47
2022-09-22T19:35:32.138Z,2.43
2022-09-22T19:38:03.559Z,2.60
2022-09-22T19:40:33.862Z,2.00
2022-09-22T19:43:03.120Z,2.50
2022-09-22T19:45:32.111Z,2.50
2022-09-22T19:48:04.504Z,2.20
2022-09-22T19:50:35.311Z,2.13
2022-09-22T19:53:04.324Z,2.53
2022-09-22T19:55:33.410Z,1.93
2022-09-22T19:58:02.345Z,2.23
2022-09-22T20:00:32.132Z,2.40
2022-09-22T20:03:01.490Z,2.50
2022-09-22T20:05:38.711Z,2.43
2022-09-22T20:08:15.489Z,2.60
2022-09-22T20:10:45.530Z,2.77
2022-09-22T20:13:28.914Z,2.23
2022-09-22T20:15:59.822Z,2.37
2022-09-22T20:18:29.769Z,2.53
2022-09-22T20:21:02.590Z,2.50
2022-09-22T20:23:31.653Z,2.57
2022-09-22T20:26:01.137Z,2.60
2022-09-22T20:28:30.419Z,2.40
2022-09-22T20:30:59.793Z,2.60
2022-09-22T20:33:29.133Z,2.73
2022-09-22T20:36:00.959Z,2.70
2022-09-22T20:38:30.980Z,2.73
2022-09-22T20:41:02.874Z,2.70
2022-09-22T20:43:32.167Z,3.03
2022-09-22T20:46:03.556Z,2.77
2022-09-22T20:48:33.108Z,2.70
2022-09-22T20:51:03.719Z,2.37
2022-09-22T20:53:35.400Z,2.50
2022-09-22T20:56:07.048Z,2.23
2022-09-22T20:58:40.387Z,2.50
2022-09-22T21:01:10.999Z,2.80
2022-09-22T21:03:40.361Z,2.50
2022-09-22T21:06:12.637Z,2.70
2022-09-22T21:09:01.019Z,2.60
2022-09-22T21:11:31.342Z,2.43
2022-09-22T21:14:03.908Z,2.50
2022-09-22T21:16:34.461Z,2.00
2022-09-22T21:19:04.702Z,2.47
2022-09-22T21:21:37.646Z,2.70
2022-09-22T21:24:08.153Z,2.23
2022-09-22T21:26:37.476Z,2.37
2022-09-22T21:29:06.722Z,2.57
2022-09-22T21:31:37.208Z,2.40
2022-09-22T21:34:06.716Z,2.70
2022-09-22T21:36:37.478Z,2.10
2022-09-22T21:39:06.845Z,2.40
2022-09-22T21:41:36.318Z,2.43
2022-09-22T21:44:06.166Z,2.47
2022-09-22T21:46:40.930Z,2.20
2022-09-22T21:49:11.599Z,2.40
2022-09-22T21:51:44.341Z,2.43
2022-09-22T21:54:15.427Z,2.20
2022-09-22T21:56:44.442Z,2.10
2022-09-22T21:59:14.257Z,2.03
2022-09-22T22:01:45.119Z,1.97
2022-09-22T22:04:15.190Z,2.13
2022-09-22T22:06:46.693Z,1.93
2022-09-22T22:09:18.358Z,2.20
2022-09-22T22:11:50.206Z,1.80
2022-09-22T22:14:20.907Z,1.80
2022-09-22T22:16:51.742Z,1.80
2022-09-22T22:19:22.142Z,1.80
2022-09-22T22:21:52.872Z,1.90
2022-09-22T22:24:35.121Z,1.97
2022-09-22T22:27:06.738Z,1.70
2022-09-22T22:29:38.451Z,1.53
2022-09-22T22:32:09.003Z,1.87
2022-09-22T22:34:38.540Z,1.60
2022-09-22T22:37:10.594Z,1.73
2022-09-22T22:39:39.517Z,1.70
2022-09-22T22:42:08.754Z,1.60
2022-09-22T22:44:37.648Z,1.90
2022-09-22T22:47:08.441Z,1.37
2022-09-22T22:49:37.429Z,1.60
2022-09-22T22:52:07.804Z,1.50
2022-09-22T22:54:36.711Z,1.70
2022-09-22T22:57:05.776Z,1.40
2022-09-22T22:59:34.737Z,1.57
2022-09-22T23:02:03.681Z,1.23
2022-09-22T23:04:32.986Z,1.30
2022-09-22T23:07:01.950Z,1.40
2022-09-22T23:09:32.186Z,1.17
2022-09-22T23:12:01.284Z,1.33
2022-09-22T23:14:30.164Z,1.57
2022-09-22T23:16:59.156Z,1.23
2022-09-22T23:19:28.213Z,1.10
2022-09-22T23:21:58.994Z,1.27
2022-09-22T23:24:27.921Z,1.40
2022-09-22T23:26:58.460Z,1.27
2022-09-22T23:29:27.472Z,1.50
2022-09-22T23:31:56.411Z,1.47
2022-09-22T23:34:25.364Z,1.30
2022-09-22T23:36:54.317Z,1.13
2022-09-22T23:39:23.473Z,1.17
2022-09-22T23:41:52.498Z,1.20
2022-09-22T23:44:22.779Z,1.10
2022-09-22T23:46:51.786Z,1.30
2022-09-22T23:49:20.875Z,1.90
2022-09-22T23:51:49.894Z,1.30
2022-09-22T23:54:18.798Z,1.03
2022-09-22T23:56:47.759Z,1.03
2022-09-22T23:59:16.682Z,1.13
